sensor_id;sensor_type;location;lat;lon;timestamp;pressure;altitude;pressure_sealevel;temperature;humidity
29549;BME280;16487;53.094;8.800;2023-02-21T00:01:30;101862.38;;;9.76;100.00
29549;BME280;16487;53.094;8.800;2023-02-21T00:03:58;101869.53;;;9.77;100.00
29549;BME280;16487;53.094;8.800;2023-02-21T00:06:25;101867.91;;;9.80;100.00
29549;BME280;16487;53.094;8.800;2023-02-21T00:08:52;101847.16;;;9.88;100.00
29549;BME280;16487;53.094;8.800;2023-02-21T00:11:19;101831.69;;;9.83;100.00
29549;BME280;16487;53.094;8.800;2023-02-21T00:13:49;101814.53;;;9.88;100.00
29549;BME280;16487;53.094;8.800;2023-02-21T00:16:17;101787.44;;;9.92;100.00
29549;BME280;16487;53.094;8.800;2023-02-21T00:18:45;101759.63;;;9.89;100.00
29549;BME280;16487;53.094;8.800;2023-02-21T00:21:13;101721.41;;;9.93;100.00
29549;BME280;16487;53.094;8.800;2023-02-21T00:23:40;101698.66;;;9.98;100.00
29549;BME280;16487;53.094;8.800;2023-02-21T00:26:08;101666.78;;;10.02;100.00
29549;BME280;16487;53.094;8.800;2023-02-21T00:28:35;101630.16;;;10.04;100.00
29549;BME280;16487;53.094;8.800;2023-02-21T00:31:03;101573.25;;;10.05;100.00
29549;BME280;16487;53.094;8.800;2023-02-21T00:33:34;101530.63;;;10.08;100.00
29549;BME280;16487;53.094;8.800;2023-02-21T00:36:04;101505.22;;;10.06;100.00
29549;BME280;16487;53.094;8.800;2023-02-21T00:38:32;101461.00;;;10.08;100.00
29549;BME280;16487;53.094;8.800;2023-02-21T00:40:59;101433.16;;;10.08;100.00
29549;BME280;16487;53.094;8.800;2023-02-21T00:43:27;101400.22;;;10.03;100.00
29549;BME280;16487;53.094;8.800;2023-02-21T00:45:55;101395.97;;;9.95;100.00
29549;BME280;16487;53.094;8.800;2023-02-21T00:48:22;101357.06;;;9.91;100.00
29549;BME280;16487;53.094;8.800;2023-02-21T00:50:50;101363.47;;;9.88;100.00
29549;BME280;16487;53.094;8.800;2023-02-21T00:53:18;101362.69;;;9.88;100.00
29549;BME280;16487;53.094;8.800;2023-02-21T00:55:46;101350.38;;;9.85;100.00
29549;BME280;16487;53.094;8.800;2023-02-21T00:58:13;101336.53;;;9.82;100.00
29549;BME280;16487;53.094;8.800;2023-02-21T01:00:41;101353.22;;;9.82;100.00
29549;BME280;16487;53.094;8.800;2023-02-21T01:03:08;101365.59;;;9.81;100.00
29549;BME280;16487;53.094;8.800;2023-02-21T01:05:36;101362.00;;;9.80;100.00
29549;BME280;16487;53.094;8.800;2023-02-21T01:08:03;101377.09;;;9.83;100.00
29549;BME280;16487;53.094;8.800;2023-02-21T01:10:32;101378.72;;;9.80;100.00
29549;BME280;16487;53.094;8.800;2023-02-21T01:12:59;101384.66;;;9.82;100.00
29549;BME280;16487;53.094;8.800;2023-02-21T01:15:27;101397.44;;;9.80;100.00
29549;BME280;16487;53.094;8.800;2023-02-21T01:17:54;101400.56;;;9.82;100.00
29549;BME280;16487;53.094;8.800;2023-02-21T01:20:21;101403.72;;;9.84;100.00
29549;BME280;16487;53.094;8.800;2023-02-21T01:22:48;101409.66;;;9.86;100.00
29549;BME280;16487;53.094;8.800;2023-02-21T01:25:16;101401.66;;;9.88;100.00
29549;BME280;16487;53.094;8.800;2023-02-21T01:27:44;101416.44;;;9.85;100.00
29549;BME280;16487;53.094;8.800;2023-02-21T01:30:12;101418.84;;;9.83;100.00
29549;BME280;16487;53.094;8.800;2023-02-21T01:32:39;101433.25;;;9.78;100.00
29549;BME280;16487;53.094;8.800;2023-02-21T01:35:06;101430.09;;;9.76;100.00
29549;BME280;16487;53.094;8.800;2023-02-21T01:37:33;101451.25;;;9.70;100.00
29549;BME280;16487;53.094;8.800;2023-02-21T01:40:01;101469.50;;;9.74;100.00
29549;BME280;16487;53.094;8.800;2023-02-21T01:42:28;101479.81;;;9.74;100.00
29549;BME280;16487;53.094;8.800;2023-02-21T01:45:40;101484.91;;;9.79;100.00
29549;BME280;16487;53.094;8.800;2023-02-21T01:48:12;101496.91;;;9.76;100.00
29549;BME280;16487;53.094;8.800;2023-02-21T01:50:41;101518.69;;;9.81;100.00
29549;BME280;16487;53.094;8.800;2023-02-21T01:53:22;101540.97;;;9.81;100.00
29549;BME280;16487;53.094;8.800;2023-02-21T01:55:50;101542.59;;;9.78;100.00
29549;BME280;16487;53.094;8.800;2023-02-21T01:58:20;101564.09;;;9.78;100.00
29549;BME280;16487;53.094;8.800;2023-02-21T02:00:50;101560.94;;;9.76;100.00
29549;BME280;16487;53.094;8.800;2023-02-21T02:03:19;101574.47;;;9.74;100.00
29549;BME280;16487;53.094;8.800;2023-02-21T02:05:55;101584.41;;;9.75;100.00
29549;BME280;16487;53.094;8.800;2023-02-21T02:08:26;101584.47;;;9.71;100.00
29549;BME280;16487;53.094;8.800;2023-02-21T02:11:02;101600.78;;;9.69;100.00
29549;BME280;16487;53.094;8.800;2023-02-21T02:13:41;101619.84;;;9.71;100.00
29549;BME280;16487;53.094;8.800;2023-02-21T02:16:21;101604.72;;;9.72;100.00
29549;BME280;16487;53.094;8.800;2023-02-21T02:22:13;101632.94;;;9.74;100.00
29549;BME280;16487;53.094;8.800;2023-02-21T02:25:02;101639.72;;;9.73;100.00
29549;BME280;16487;53.094;8.800;2023-02-21T02:36:49;101662.44;;;9.68;100.00
29549;BME280;16487;53.094;8.800;2023-02-21T02:39:23;101677.53;;;9.67;100.00
29549;BME280;16487;53.094;8.800;2023-02-21T02:42:01;101695.47;;;9.66;100.00
29549;BME280;16487;53.094;8.800;2023-02-21T02:44:36;101693.06;;;9.68;100.00
29549;BME280;16487;53.094;8.800;2023-02-21T02:47:08;101709.75;;;9.68;100.00
29549;BME280;16487;53.094;8.800;2023-02-21T02:49:40;101730.06;;;9.61;100.00
29549;BME280;16487;53.094;8.800;2023-02-21T02:52:10;101744.78;;;9.62;100.00
29549;BME280;16487;53.094;8.800;2023-02-21T02:54:37;101765.50;;;9.61;100.00
29549;BME280;16487;53.094;8.800;2023-02-21T02:57:06;101773.03;;;9.60;100.00
29549;BME280;16487;53.094;8.800;2023-02-21T02:59:37;101795.69;;;9.62;100.00
29549;BME280;16487;53.094;8.800;2023-02-21T03:02:23;101801.66;;;9.64;100.00
29549;BME280;16487;53.094;8.800;2023-02-21T03:05:20;101814.75;;;9.64;100.00
29549;BME280;16487;53.094;8.800;2023-02-21T03:07:57;101838.97;;;9.67;100.00
29549;BME280;16487;53.094;8.800;2023-02-21T03:10:36;101834.59;;;9.69;100.00
29549;BME280;16487;53.094;8.800;2023-02-21T03:13:12;101848.94;;;9.68;100.00
29549;BME280;16487;53.094;8.800;2023-02-21T03:15:47;101857.28;;;9.68;100.00
29549;BME280;16487;53.094;8.800;2023-02-21T03:18:18;101860.06;;;9.68;100.00
29549;BME280;16487;53.094;8.800;2023-02-21T03:20:52;101860.88;;;9.65;100.00
29549;BME280;16487;53.094;8.800;2023-02-21T03:23:23;101872.44;;;9.60;100.00
29549;BME280;16487;53.094;8.800;2023-02-21T03:25:53;101891.09;;;9.63;100.00
29549;BME280;16487;53.094;8.800;2023-02-21T03:28:22;101919.75;;;9.60;100.00
29549;BME280;16487;53.094;8.800;2023-02-21T03:30:52;101920.56;;;9.60;100.00
29549;BME280;16487;53.094;8.800;2023-02-21T03:33:22;101944.81;;;9.60;100.00
29549;BME280;16487;53.094;8.800;2023-02-21T03:35:51;101966.69;;;9.58;100.00
29549;BME280;16487;53.094;8.800;2023-02-21T03:38:19;102014.78;;;9.58;100.00
29549;BME280;16487;53.094;8.800;2023-02-21T03:40:50;102012.03;;;9.55;100.00
29549;BME280;16487;53.094;8.800;2023-02-21T03:43:17;102039.88;;;9.51;100.00
29549;BME280;16487;53.094;8.800;2023-02-21T03:45:51;102072.88;;;9.53;100.00
29549;BME280;16487;53.094;8.800;2023-02-21T03:48:19;102103.09;;;9.51;100.00
29549;BME280;16487;53.094;8.800;2023-02-21T03:51:00;102138.91;;;9.49;100.00
29549;BME280;16487;53.094;8.800;2023-02-21T03:53:33;102197.34;;;9.49;100.00
29549;BME280;16487;53.094;8.800;2023-02-21T03:56:04;102249.81;;;9.47;100.00
29549;BME280;16487;53.094;8.800;2023-02-21T03:58:48;102305.47;;;9.47;100.00
29549;BME280;16487;53.094;8.800;2023-02-21T04:01:16;102368.69;;;9.46;100.00
29549;BME280;16487;53.094;8.800;2023-02-21T04:03:44;102450.19;;;9.43;100.00
29549;BME280;16487;53.094;8.800;2023-02-21T04:06:11;102530.50;;;9.45;100.00
29549;BME280;16487;53.094;8.800;2023-02-21T04:08:38;102612.03;;;9.49;100.00
29549;BME280;16487;53.094;8.800;2023-02-21T04:11:07;102691.13;;;9.44;100.00
29549;BME280;16487;53.094;8.800;2023-02-21T04:13:35;102772.22;;;9.43;100.00
29549;BME280;16487;53.094;8.800;2023-02-21T04:16:03;102831.09;;;9.45;100.00
29549;BME280;16487;53.094;8.800;2023-02-21T04:18:33;102887.53;;;9.42;100.00
29549;BME280;16487;53.094;8.800;2023-02-21T04:21:04;102936.81;;;9.41;100.00
29549;BME280;16487;53.094;8.800;2023-02-21T04:23:32;102991.25;;;9.39;100.00
29549;BME280;16487;53.094;8.800;2023-02-21T04:25:59;103029.03;;;9.40;100.00
29549;BME280;16487;53.094;8.800;2023-02-21T04:28:37;103085.13;;;9.42;100.00
29549;BME280;16487;53.094;8.800;2023-02-21T04:31:05;103120.47;;;9.38;100.00
29549;BME280;16487;53.094;8.800;2023-02-21T04:33:32;103172.97;;;9.39;100.00
29549;BME280;16487;53.094;8.800;2023-02-21T04:36:00;103208.34;;;9.39;100.00
29549;BME280;16487;53.094;8.800;2023-02-21T04:38:34;103240.97;;;9.38;100.00
29549;BME280;16487;53.094;8.800;2023-02-21T04:41:02;103271.94;;;9.37;100.00
29549;BME280;16487;53.094;8.800;2023-02-21T04:43:29;103319.28;;;9.37;100.00
29549;BME280;16487;53.094;8.800;2023-02-21T04:45:59;103340.34;;;9.38;100.00
29549;BME280;16487;53.094;8.800;2023-02-21T04:48:26;103368.56;;;9.36;100.00
29549;BME280;16487;53.094;8.800;2023-02-21T04:50:53;103400.41;;;9.39;100.00
29549;BME280;16487;53.094;8.800;2023-02-21T04:53:27;103413.91;;;9.37;100.00
29549;BME280;16487;53.094;8.800;2023-02-21T04:55:54;103437.78;;;9.38;100.00
29549;BME280;16487;53.094;8.800;2023-02-21T04:58:22;103473.97;;;9.38;100.00
29549;BME280;16487;53.094;8.800;2023-02-21T05:00:51;103494.31;;;9.42;100.00
29549;BME280;16487;53.094;8.800;2023-02-21T05:03:20;103509.41;;;9.41;100.00
29549;BME280;16487;53.094;8.800;2023-02-21T05:05:47;103539.94;;;9.37;100.00
29549;BME280;16487;53.094;8.800;2023-02-21T05:08:14;103559.81;;;9.36;100.00
29549;BME280;16487;53.094;8.800;2023-02-21T05:10:42;103580.91;;;9.37;100.00
29549;BME280;16487;53.094;8.800;2023-02-21T05:13:15;103608.00;;;9.40;100.00
29549;BME280;16487;53.094;8.800;2023-02-21T05:15:42;103624.63;;;9.36;100.00
29549;BME280;16487;53.094;8.800;2023-02-21T05:18:09;103653.38;;;9.40;100.00
29549;BME280;16487;53.094;8.800;2023-02-21T05:20:38;103681.53;;;9.39;100.00
29549;BME280;16487;53.094;8.800;2023-02-21T05:23:05;103706.59;;;9.39;100.00
29549;BME280;16487;53.094;8.800;2023-02-21T05:25:40;103725.66;;;9.37;100.00
29549;BME280;16487;53.094;8.800;2023-02-21T05:28:07;103741.19;;;9.38;100.00
29549;BME280;16487;53.094;8.800;2023-02-21T05:30:35;103747.94;;;9.37;100.00
29549;BME280;16487;53.094;8.800;2023-02-21T05:33:02;103772.16;;;9.36;100.00
29549;BME280;16487;53.094;8.800;2023-02-21T05:35:29;103793.63;;;9.36;100.00
29549;BME280;16487;53.094;8.800;2023-02-21T05:37:58;103815.06;;;9.35;100.00
29549;BME280;16487;53.094;8.800;2023-02-21T05:40:26;103840.59;;;9.37;100.00
29549;BME280;16487;53.094;8.800;2023-02-21T05:42:53;103858.84;;;9.35;100.00
29549;BME280;16487;53.094;8.800;2023-02-21T05:45:21;103865.53;;;9.34;100.00
29549;BME280;16487;53.094;8.800;2023-02-21T05:47:49;103881.00;;;9.31;100.00
29549;BME280;16487;53.094;8.800;2023-02-21T05:50:16;103897.34;;;9.33;100.00
29549;BME280;16487;53.094;8.800;2023-02-21T05:52:43;103911.63;;;9.31;100.00
29549;BME280;16487;53.094;8.800;2023-02-21T05:55:12;103936.22;;;9.29;100.00
29549;BME280;16487;53.094;8.800;2023-02-21T05:57:39;103954.97;;;9.32;100.00
29549;BME280;16487;53.094;8.800;2023-02-21T06:00:12;103959.84;;;9.35;100.00
29549;BME280;16487;53.094;8.800;2023-02-21T06:02:40;103984.09;;;9.35;100.00
29549;BME280;16487;53.094;8.800;2023-02-21T06:05:07;103992.00;;;9.33;100.00
29549;BME280;16487;53.094;8.800;2023-02-21T06:07:34;104015.09;;;9.33;100.00
29549;BME280;16487;53.094;8.800;2023-02-21T06:10:02;104011.72;;;9.27;100.00
29549;BME280;16487;53.094;8.800;2023-02-21T06:12:31;104041.19;;;9.28;100.00
29549;BME280;16487;53.094;8.800;2023-02-21T06:14:58;104045.25;;;9.31;100.00
29549;BME280;16487;53.094;8.800;2023-02-21T06:17:26;104055.44;;;9.27;100.00
29549;BME280;16487;53.094;8.800;2023-02-21T06:19:54;104067.88;;;9.30;100.00
29549;BME280;16487;53.094;8.800;2023-02-21T06:22:21;104088.50;;;9.28;100.00
29549;BME280;16487;53.094;8.800;2023-02-21T06:24:49;104092.91;;;9.30;100.00
29549;BME280;16487;53.094;8.800;2023-02-21T06:27:18;104100.81;;;9.27;100.00
29549;BME280;16487;53.094;8.800;2023-02-21T06:29:46;104110.31;;;9.26;100.00
29549;BME280;16487;53.094;8.800;2023-02-21T06:32:14;104130.25;;;9.28;100.00
29549;BME280;16487;53.094;8.800;2023-02-21T06:34:43;104140.69;;;9.32;100.00
29549;BME280;16487;53.094;8.800;2023-02-21T06:37:10;104147.78;;;9.29;100.00
29549;BME280;16487;53.094;8.800;2023-02-21T06:39:37;104162.16;;;9.31;100.00
29549;BME280;16487;53.094;8.800;2023-02-21T06:42:05;104171.53;;;9.26;100.00
29549;BME280;16487;53.094;8.800;2023-02-21T06:44:32;104192.19;;;9.25;100.00
29549;BME280;16487;53.094;8.800;2023-02-21T06:47:00;104189.19;;;9.31;100.00
29549;BME280;16487;53.094;8.800;2023-02-21T06:49:28;104198.59;;;9.26;100.00
29549;BME280;16487;53.094;8.800;2023-02-21T06:51:55;104200.19;;;9.27;100.00
29549;BME280;16487;53.094;8.800;2023-02-21T06:54:22;104210.63;;;9.30;100.00
29549;BME280;16487;53.094;8.800;2023-02-21T06:56:50;104211.09;;;9.32;100.00
29549;BME280;16487;53.094;8.800;2023-02-21T06:59:17;104212.63;;;9.30;100.00
29549;BME280;16487;53.094;8.800;2023-02-21T07:01:44;104227.31;;;9.30;100.00
29549;BME280;16487;53.094;8.800;2023-02-21T07:04:13;104221.75;;;9.30;100.00
29549;BME280;16487;53.094;8.800;2023-02-21T07:06:40;104239.28;;;9.31;100.00
29549;BME280;16487;53.094;8.800;2023-02-21T07:09:07;104239.75;;;9.33;100.00
29549;BME280;16487;53.094;8.800;2023-02-21T07:11:35;104259.13;;;9.29;100.00
29549;BME280;16487;53.094;8.800;2023-02-21T07:14:02;104284.28;;;9.33;100.00
29549;BME280;16487;53.094;8.800;2023-02-21T07:16:29;104278.59;;;9.29;100.00
29549;BME280;16487;53.094;8.800;2023-02-21T07:18:57;104287.78;;;9.30;100.00
29549;BME280;16487;53.094;8.800;2023-02-21T07:21:26;104297.03;;;9.34;100.00
29549;BME280;16487;53.094;8.800;2023-02-21T07:23:53;104298.91;;;9.30;100.00
29549;BME280;16487;53.094;8.800;2023-02-21T07:26:20;104311.19;;;9.28;100.00
29549;BME280;16487;53.094;8.800;2023-02-21T07:28:48;104323.97;;;9.30;100.00
29549;BME280;16487;53.094;8.800;2023-02-21T07:31:15;104339.63;;;9.34;100.00
29549;BME280;16487;53.094;8.800;2023-02-21T07:33:45;104341.59;;;9.34;100.00
29549;BME280;16487;53.094;8.800;2023-02-21T07:36:13;104347.38;;;9.28;100.00
29549;BME280;16487;53.094;8.800;2023-02-21T07:38:41;104358.28;;;9.34;100.00
29549;BME280;16487;53.094;8.800;2023-02-21T07:41:09;104369.78;;;9.32;100.00
29549;BME280;16487;53.094;8.800;2023-02-21T07:43:36;104386.13;;;9.34;100.00
29549;BME280;16487;53.094;8.800;2023-02-21T07:46:04;104386.34;;;9.28;100.00
29549;BME280;16487;53.094;8.800;2023-02-21T07:48:35;104384.88;;;9.31;100.00
29549;BME280;16487;53.094;8.800;2023-02-21T07:51:02;104391.94;;;9.28;100.00
29549;BME280;16487;53.094;8.800;2023-02-21T07:53:29;104403.06;;;9.28;100.00
29549;BME280;16487;53.094;8.800;2023-02-21T07:55:58;104426.16;;;9.29;100.00
29549;BME280;16487;53.094;8.800;2023-02-21T07:58:25;104434.97;;;9.31;100.00
29549;BME280;16487;53.094;8.800;2023-02-21T08:00:52;104437.41;;;9.33;100.00
29549;BME280;16487;53.094;8.800;2023-02-21T08:03:20;104448.78;;;9.27;100.00
29549;BME280;16487;53.094;8.800;2023-02-21T08:05:48;104439.59;;;9.27;100.00
29549;BME280;16487;53.094;8.800;2023-02-21T08:08:15;104457.13;;;9.27;100.00
29549;BME280;16487;53.094;8.800;2023-02-21T08:10:42;104463.59;;;9.32;100.00
29549;BME280;16487;53.094;8.800;2023-02-21T08:13:11;104475.69;;;9.36;100.00
29549;BME280;16487;53.094;8.800;2023-02-21T08:15:38;104484.53;;;9.38;99.60
29549;BME280;16487;53.094;8.800;2023-02-21T08:18:05;104491.72;;;9.39;98.78
29549;BME280;16487;53.094;8.800;2023-02-21T08:20:33;104491.72;;;9.39;98.39
29549;BME280;16487;53.094;8.800;2023-02-21T08:23:00;104498.78;;;9.36;97.97
29549;BME280;16487;53.094;8.800;2023-02-21T08:25:27;104502.72;;;9.35;97.91
29549;BME280;16487;53.094;8.800;2023-02-21T08:27:55;104505.19;;;9.37;97.21
29549;BME280;16487;53.094;8.800;2023-02-21T08:30:23;104526.06;;;9.43;96.61
29549;BME280;16487;53.094;8.800;2023-02-21T08:32:51;104534.44;;;9.43;96.29
29549;BME280;16487;53.094;8.800;2023-02-21T08:35:19;104540.13;;;9.46;95.71
29549;BME280;16487;53.094;8.800;2023-02-21T08:37:47;104543.94;;;9.42;95.70
29549;BME280;16487;53.094;8.800;2023-02-21T08:40:18;104552.78;;;9.44;95.38
29549;BME280;16487;53.094;8.800;2023-02-21T08:42:48;104553.22;;;9.46;94.67
29549;BME280;16487;53.094;8.800;2023-02-21T08:45:18;104573.88;;;9.45;94.47
29549;BME280;16487;53.094;8.800;2023-02-21T08:47:47;104567.16;;;9.46;94.46
29549;BME280;16487;53.094;8.800;2023-02-21T08:50:15;104572.06;;;9.49;93.49
29549;BME280;16487;53.094;8.800;2023-02-21T08:52:45;104574.38;;;9.47;94.14
29549;BME280;16487;53.094;8.800;2023-02-21T08:55:12;104581.06;;;9.46;94.04
29549;BME280;16487;53.094;8.800;2023-02-21T08:57:40;104586.13;;;9.52;93.57
29549;BME280;16487;53.094;8.800;2023-02-21T09:00:08;104596.91;;;9.54;93.49
29549;BME280;16487;53.094;8.800;2023-02-21T09:02:37;104600.03;;;9.52;93.33
29549;BME280;16487;53.094;8.800;2023-02-21T09:05:07;104612.44;;;9.55;93.47
29549;BME280;16487;53.094;8.800;2023-02-21T09:07:34;104605.75;;;9.56;93.28
29549;BME280;16487;53.094;8.800;2023-02-21T09:10:02;104611.44;;;9.59;93.36
29549;BME280;16487;53.094;8.800;2023-02-21T09:12:29;104616.53;;;9.57;93.71
29549;BME280;16487;53.094;8.800;2023-02-21T09:14:57;104615.03;;;9.60;93.70
29549;BME280;16487;53.094;8.800;2023-02-21T09:17:24;104625.59;;;9.66;93.55
29549;BME280;16487;53.094;8.800;2023-02-21T09:19:51;104630.50;;;9.69;93.77
29549;BME280;16487;53.094;8.800;2023-02-21T09:22:20;104634.56;;;9.72;93.67
29549;BME280;16487;53.094;8.800;2023-02-21T09:24:47;104639.22;;;9.68;94.28
29549;BME280;16487;53.094;8.800;2023-02-21T09:27:15;104652.94;;;9.73;94.28
29549;BME280;16487;53.094;8.800;2023-02-21T09:29:42;104648.63;;;9.75;94.71
29549;BME280;16487;53.094;8.800;2023-02-21T09:32:13;104656.31;;;9.78;95.46
29549;BME280;16487;53.094;8.800;2023-02-21T09:34:40;104648.63;;;9.75;96.31
29549;BME280;16487;53.094;8.800;2023-02-21T09:37:07;104646.91;;;9.83;96.44
29549;BME280;16487;53.094;8.800;2023-02-21T09:39:37;104645.97;;;9.79;97.54
29549;BME280;16487;53.094;8.800;2023-02-21T09:42:04;104650.75;;;9.78;98.58
29549;BME280;16487;53.094;8.800;2023-02-21T09:44:33;104645.28;;;9.82;98.58
29549;BME280;16487;53.094;8.800;2023-02-21T09:47:04;104647.63;;;9.80;100.00
29549;BME280;16487;53.094;8.800;2023-02-21T09:49:34;104645.75;;;9.84;100.00
29549;BME280;16487;53.094;8.800;2023-02-21T09:52:04;104650.91;;;9.94;100.00
29549;BME280;16487;53.094;8.800;2023-02-21T09:54:38;104640.91;;;9.93;100.00
29549;BME280;16487;53.094;8.800;2023-02-21T09:57:11;104628.03;;;9.88;100.00
29549;BME280;16487;53.094;8.800;2023-02-21T09:59:39;104615.13;;;9.96;100.00
29549;BME280;16487;53.094;8.800;2023-02-21T10:02:23;104609.47;;;10.04;100.00
29549;BME280;16487;53.094;8.800;2023-02-21T10:04:59;104595.25;;;10.18;100.00
29549;BME280;16487;53.094;8.800;2023-02-21T10:07:34;104563.19;;;10.24;100.00
29549;BME280;16487;53.094;8.800;2023-02-21T10:10:12;104531.56;;;10.32;100.00
29549;BME280;16487;53.094;8.800;2023-02-21T10:12:45;104483.22;;;10.40;100.00
29549;BME280;16487;53.094;8.800;2023-02-21T10:15:25;104434.53;;;10.37;100.00
29549;BME280;16487;53.094;8.800;2023-02-21T10:18:01;104350.09;;;10.37;100.00
29549;BME280;16487;53.094;8.800;2023-02-21T10:20:34;104281.50;;;10.36;100.00
29549;BME280;16487;53.094;8.800;2023-02-21T10:23:13;104185.00;;;10.31;100.00
29549;BME280;16487;53.094;8.800;2023-02-21T10:25:43;104104.88;;;10.44;100.00
29549;BME280;16487;53.094;8.800;2023-02-21T10:28:16;103985.94;;;10.36;100.00
29549;BME280;16487;53.094;8.800;2023-02-21T10:30:45;103874.47;;;10.39;100.00
29549;BME280;16487;53.094;8.800;2023-02-21T10:33:15;103764.03;;;10.54;100.00
29549;BME280;16487;53.094;8.800;2023-02-21T10:35:43;103645.31;;;10.79;100.00
29549;BME280;16487;53.094;8.800;2023-02-21T10:38:12;103470.19;;;10.69;100.00
29549;BME280;16487;53.094;8.800;2023-02-21T10:40:44;103281.50;;;10.84;100.00
29549;BME280;16487;53.094;8.800;2023-02-21T10:43:16;103124.31;;;10.69;100.00
29549;BME280;16487;53.094;8.800;2023-02-21T10:45:50;103033.53;;;10.79;100.00
29549;BME280;16487;53.094;8.800;2023-02-21T10:48:20;102945.09;;;10.86;100.00
29549;BME280;16487;53.094;8.800;2023-02-21T10:50:53;102913.59;;;10.75;100.00
29549;BME280;16487;53.094;8.800;2023-02-21T10:53:32;102889.66;;;10.71;100.00
29549;BME280;16487;53.094;8.800;2023-02-21T10:56:24;102860.59;;;10.72;100.00
29549;BME280;16487;53.094;8.800;2023-02-21T10:58:55;102831.53;;;10.87;100.00
29549;BME280;16487;53.094;8.800;2023-02-21T11:01:34;102813.25;;;11.10;100.00
29549;BME280;16487;53.094;8.800;2023-02-21T11:04:05;102784.91;;;11.08;100.00
29549;BME280;16487;53.094;8.800;2023-02-21T11:06:35;102738.28;;;11.02;100.00
29549;BME280;16487;53.094;8.800;2023-02-21T11:09:28;102702.00;;;10.88;100.00
29549;BME280;16487;53.094;8.800;2023-02-21T11:12:02;102663.34;;;11.00;100.00
29549;BME280;16487;53.094;8.800;2023-02-21T11:14:31;102648.97;;;11.16;100.00
29549;BME280;16487;53.094;8.800;2023-02-21T11:17:10;102596.75;;;11.16;100.00
29549;BME280;16487;53.094;8.800;2023-02-21T11:19:51;102564.06;;;11.13;100.00
29549;BME280;16487;53.094;8.800;2023-02-21T11:22:21;102547.28;;;11.17;100.00
29549;BME280;16487;53.094;8.800;2023-02-21T11:24:58;102534.47;;;11.37;100.00
29549;BME280;16487;53.094;8.800;2023-02-21T11:27:29;102493.88;;;11.25;100.00
29549;BME280;16487;53.094;8.800;2023-02-21T11:29:58;102454.31;;;11.37;100.00
29549;BME280;16487;53.094;8.800;2023-02-21T11:32:29;102410.47;;;11.31;100.00
29549;BME280;16487;53.094;8.800;2023-02-21T11:35:14;102382.50;;;11.41;100.00
29549;BME280;16487;53.094;8.800;2023-02-21T11:37:49;102342.25;;;11.35;100.00
29549;BME280;16487;53.094;8.800;2023-02-21T11:40:27;102319.50;;;11.40;100.00
29549;BME280;16487;53.094;8.800;2023-02-21T11:43:18;102295.78;;;11.63;100.00
29549;BME280;16487;53.094;8.800;2023-02-21T11:46:07;102256.75;;;11.52;100.00
29549;BME280;16487;53.094;8.800;2023-02-21T11:48:43;102222.66;;;11.34;100.00
29549;BME280;16487;53.094;8.800;2023-02-21T11:51:17;102211.28;;;11.51;100.00
29549;BME280;16487;53.094;8.800;2023-02-21T11:53:51;102181.72;;;11.57;100.00
29549;BME280;16487;53.094;8.800;2023-02-21T11:56:29;102157.06;;;11.52;100.00
29549;BME280;16487;53.094;8.800;2023-02-21T11:59:09;102122.56;;;11.70;100.00
29549;BME280;16487;53.094;8.800;2023-02-21T12:01:43;102103.31;;;11.79;100.00
29549;BME280;16487;53.094;8.800;2023-02-21T12:04:32;102069.00;;;11.78;100.00
29549;BME280;16487;53.094;8.800;2023-02-21T12:07:11;102029.94;;;11.75;100.00
29549;BME280;16487;53.094;8.800;2023-02-21T12:09:44;102018.91;;;11.61;100.00
29549;BME280;16487;53.094;8.800;2023-02-21T12:12:26;101995.31;;;11.69;100.00
29549;BME280;16487;53.094;8.800;2023-02-21T12:15:07;101970.25;;;11.62;100.00
29549;BME280;16487;53.094;8.800;2023-02-21T12:18:11;101963.13;;;11.57;100.00
29549;BME280;16487;53.094;8.800;2023-02-21T12:21:00;101958.00;;;11.82;100.00
29549;BME280;16487;53.094;8.800;2023-02-21T12:23:34;101948.25;;;11.64;100.00
29549;BME280;16487;53.094;8.800;2023-02-21T12:26:18;101932.94;;;11.48;100.00
29549;BME280;16487;53.094;8.800;2023-02-21T12:31:50;101914.13;;;11.52;100.00
29549;BME280;16487;53.094;8.800;2023-02-21T12:34:35;101920.19;;;11.47;100.00
29549;BME280;16487;53.094;8.800;2023-02-21T12:37:22;101903.44;;;11.47;100.00
29549;BME280;16487;53.094;8.800;2023-02-21T12:40:01;101902.22;;;11.48;100.00
29549;BME280;16487;53.094;8.800;2023-02-21T12:42:47;101893.63;;;11.63;100.00
29549;BME280;16487;53.094;8.800;2023-02-21T12:45:30;101896.19;;;11.80;100.00
29549;BME280;16487;53.094;8.800;2023-02-21T12:48:10;101866.13;;;11.88;100.00
29549;BME280;16487;53.094;8.800;2023-02-21T12:50:40;101852.25;;;12.04;100.00
29549;BME280;16487;53.094;8.800;2023-02-21T12:53:12;101818.41;;;12.21;100.00
29549;BME280;16487;53.094;8.800;2023-02-21T12:55:45;101799.63;;;12.22;100.00
29549;BME280;16487;53.094;8.800;2023-02-21T12:58:20;101782.00;;;12.25;100.00
29549;BME280;16487;53.094;8.800;2023-02-21T13:00:53;101739.72;;;12.23;100.00
29549;BME280;16487;53.094;8.800;2023-02-21T13:03:35;101714.56;;;12.23;100.00
29549;BME280;16487;53.094;8.800;2023-02-21T13:06:10;101683.91;;;12.55;100.00
29549;BME280;16487;53.094;8.800;2023-02-21T13:08:51;101647.09;;;12.40;100.00
29549;BME280;16487;53.094;8.800;2023-02-21T13:11:23;101611.19;;;12.39;100.00
29549;BME280;16487;53.094;8.800;2023-02-21T13:13:51;101598.97;;;12.49;100.00
29549;BME280;16487;53.094;8.800;2023-02-21T13:16:18;101574.94;;;12.51;100.00
29549;BME280;16487;53.094;8.800;2023-02-21T13:18:50;101546.38;;;12.60;100.00
29549;BME280;16487;53.094;8.800;2023-02-21T13:21:28;101525.56;;;12.45;100.00
29549;BME280;16487;53.094;8.800;2023-02-21T13:24:20;101501.69;;;12.24;100.00